Time;durP1;ratioP1;P1;durP2;ratioP2;P2;SDS_P1;SDS_P2;PMS_P1;PMS_P2;Temp;Humidity;BMP_temperature;BMP_pressure;BME280_temperature;BME280_humidity;BME280_pressure;Samples;Min_cycle;Max_cycle;Signal;HPM_P1;HPM_P2
2022/08/23 00:00:08;;;;;;;0.00;0.00;;;16.70;99.90;16.00;97297.00;;;;5055273;28;20222;-76
2022/08/23 00:02:42;;;;;;;0.00;0.00;;;16.80;99.90;16.10;97310.00;;;;5072790;28;20221;-75
2022/08/23 00:05:12;;;;;;;0.00;0.00;;;16.80;99.90;16.00;97293.00;;;;5072256;28;20195;-75
2022/08/23 00:07:43;;;;;;;0.00;0.00;;;16.70;99.90;15.90;97291.00;;;;5072451;28;20206;-75
2022/08/23 00:10:15;;;;;;;0.00;0.00;;;16.60;99.90;15.80;97289.00;;;;5072001;28;20727;-75
2022/08/23 00:12:44;;;;;;;0.00;0.00;;;16.50;99.90;15.70;97310.00;;;;5072474;28;20200;-75
2022/08/23 00:15:19;;;;;;;0.00;0.00;;;16.50;99.90;15.70;97298.00;;;;5071775;28;20197;-75
2022/08/23 00:17:49;;;;;;;0.00;0.00;;;16.60;99.90;15.60;97313.00;;;;5071312;28;20204;-75
2022/08/23 00:20:19;;;;;;;0.00;0.00;;;16.50;99.90;15.40;97289.00;;;;5071240;28;20236;-75
2022/08/23 00:22:47;;;;;;;0.10;0.10;;;16.20;99.90;15.00;97254.00;;;;5071499;28;20228;-75
2022/08/23 00:25:16;;;;;;;0.00;0.00;;;15.90;99.90;15.00;97295.00;;;;5070823;28;20201;-75
2022/08/23 00:27:45;;;;;;;0.00;0.00;;;15.90;99.90;14.80;97301.00;;;;5071270;28;20656;-75
2022/08/23 00:30:15;;;;;;;0.10;0.10;;;15.70;99.90;14.80;97294.00;;;;5071098;28;20210;-74
2022/08/23 00:32:44;;;;;;;0.00;0.00;;;15.80;99.90;14.80;97310.00;;;;5053836;28;20197;-74
2022/08/23 00:35:16;;;;;;;0.00;0.00;;;15.70;99.90;14.80;97299.00;;;;5073985;28;20564;-74
2022/08/23 00:37:56;;;;;;;0.00;0.00;;;15.70;99.90;14.70;97247.00;;;;5075393;28;20682;-75
2022/08/23 00:40:49;;;;;;;0.10;0.10;;;15.60;99.90;14.70;97298.00;;;;5075309;28;20196;-75
2022/08/23 00:49:30;;;;;;;0.00;0.00;;;15.60;99.90;14.80;97287.00;;;;4974079;28;20244;-74
2022/08/23 00:52:08;;;;;;;0.00;0.00;;;15.60;99.90;14.80;97285.00;;;;5045451;28;20213;-75
2022/08/23 00:54:40;;;;;;;0.10;0.10;;;15.70;99.90;14.80;97298.00;;;;5057041;28;20198;-75
2022/08/23 00:57:18;;;;;;;0.00;0.00;;;15.60;99.90;14.70;97287.00;;;;5075035;28;20659;-75
2022/08/23 00:59:46;;;;;;;0.00;0.00;;;15.50;99.90;14.60;97282.00;;;;5074280;28;20696;-75
2022/08/23 01:02:15;;;;;;;0.00;0.00;;;15.40;99.90;14.60;97299.00;;;;5057801;28;20225;-74
2022/08/23 01:04:51;;;;;;;0.00;0.00;;;15.50;99.90;14.60;97287.00;;;;5075117;28;20212;-74
2022/08/23 01:07:36;;;;;;;0.00;0.00;;;15.40;99.90;14.50;97287.00;;;;5074590;28;20198;-74
2022/08/23 01:10:12;;;;;;;0.10;0.10;;;15.40;99.90;14.60;97281.00;;;;5059673;28;20228;-73
2022/08/23 01:12:56;;;;;;;0.00;0.00;;;15.50;99.90;14.40;97284.00;;;;5066746;28;20681;-73
2022/08/23 01:15:32;;;;;;;0.00;0.00;;;15.30;99.90;14.50;97290.00;;;;5062742;28;20197;-75
2022/08/23 01:18:06;;;;;;;0.00;0.00;;;15.40;99.90;14.40;97261.00;;;;5041058;28;20653;-75
2022/08/23 01:20:55;;;;;;;0.10;0.10;;;15.40;99.90;14.30;97295.00;;;;5054527;28;20201;-74
2022/08/23 01:23:36;;;;;;;0.10;0.10;;;15.20;99.90;14.30;97298.00;;;;5073220;28;21033;-74
2022/08/23 01:26:06;;;;;;;0.00;0.00;;;15.30;99.90;14.20;97300.00;;;;5074634;28;20212;-75
2022/08/23 01:28:38;;;;;;;0.00;0.00;;;15.20;99.90;14.20;97302.00;;;;5056034;28;20271;-74
2022/08/23 01:31:06;;;;;;;0.00;0.00;;;15.10;99.90;14.20;97297.00;;;;5056494;28;20193;-75
2022/08/23 01:33:36;;;;;;;0.05;0.05;;;15.10;99.90;14.10;97297.00;;;;5074415;28;20645;-74
2022/08/23 01:36:08;;;;;;;0.00;0.00;;;15.10;99.90;14.10;97289.00;;;;5072869;28;20575;-74
2022/08/23 01:38:39;;;;;;;0.03;0.03;;;15.00;99.90;14.10;97296.00;;;;5072675;28;20308;-74
2022/08/23 01:41:08;;;;;;;0.10;0.10;;;15.00;99.90;14.10;97276.00;;;;5056322;28;20194;-74
2022/08/23 01:43:36;;;;;;;0.03;0.03;;;15.00;99.90;14.00;97288.00;;;;5073930;28;20228;-74
2022/08/23 01:46:11;;;;;;;0.00;0.00;;;14.90;99.90;14.00;97245.00;;;;5070474;28;20217;-74
2022/08/23 01:48:39;;;;;;;0.00;0.00;;;14.90;99.90;13.90;97300.00;;;;5072455;28;20258;-74
2022/08/23 01:51:08;;;;;;;0.10;0.10;;;14.80;99.90;13.80;97313.00;;;;5056256;28;20239;-74
2022/08/23 01:53:38;;;;;;;0.10;0.10;;;14.80;99.90;13.90;97307.00;;;;5055882;28;20262;-74
2022/08/23 01:56:07;;;;;;;0.00;0.00;;;14.90;99.90;13.80;97300.00;;;;5072366;28;20197;-74
2022/08/23 01:58:37;;;;;;;0.10;0.10;;;14.80;99.90;13.90;97298.00;;;;5055632;28;20226;-74
2022/08/23 02:01:07;;;;;;;0.10;0.10;;;14.80;99.90;13.90;97315.00;;;;5074253;28;20189;-74
2022/08/23 02:03:36;;;;;;;0.10;0.10;;;14.80;99.90;13.70;97294.00;;;;5055667;28;20278;-74
2022/08/23 02:06:05;;;;;;;0.00;0.00;;;14.70;99.90;13.60;97305.00;;;;5073473;28;20217;-75
2022/08/23 02:11:25;;;;;;;0.00;0.00;;;14.60;99.90;13.70;97307.00;;;;5072354;28;20205;-74
2022/08/23 02:13:59;;;;;;;0.00;0.00;;;14.70;99.90;13.60;97311.00;;;;5055631;28;20209;-74
2022/08/23 02:16:37;;;;;;;0.00;0.00;;;14.50;99.90;13.50;97312.00;;;;5055602;28;20259;-74
2022/08/23 02:19:13;;;;;;;0.00;0.00;;;14.30;99.90;13.40;97303.00;;;;5055614;28;20228;-74
2022/08/23 02:21:42;;;;;;;0.10;0.10;;;14.30;99.90;13.40;97295.00;;;;5072573;28;20547;-75
2022/08/23 02:24:16;;;;;;;0.00;0.00;;;14.30;99.90;13.40;97305.00;;;;5055792;28;20673;-75
2022/08/23 02:26:49;;;;;;;0.08;0.08;;;14.30;99.90;13.40;97300.00;;;;5072172;28;20734;-75
2022/08/23 02:29:28;;;;;;;0.10;0.10;;;14.30;99.90;13.40;97309.00;;;;5073284;28;20288;-75
2022/08/23 02:31:58;;;;;;;0.10;0.10;;;14.30;99.90;13.50;97301.00;;;;5071992;28;20311;-75
2022/08/23 02:34:28;;;;;;;0.00;0.00;;;14.30;99.90;13.40;97297.00;;;;5055625;28;20892;-73
2022/08/23 02:37:03;;;;;;;0.03;0.03;;;14.30;99.90;13.30;97299.00;;;;5073445;28;20193;-74
2022/08/23 02:39:31;;;;;;;0.00;0.00;;;14.30;99.90;13.40;97306.00;;;;5055187;28;20225;-74
2022/08/23 02:42:02;;;;;;;0.10;0.10;;;14.30;99.90;13.30;97319.00;;;;5055716;28;20205;-74
2022/08/23 02:44:34;;;;;;;0.10;0.10;;;14.20;99.90;13.40;97324.00;;;;5071690;28;20217;-75
2022/08/23 02:47:03;;;;;;;0.10;0.10;;;14.30;99.90;13.50;97306.00;;;;5071963;28;20197;-74
2022/08/23 02:49:32;;;;;;;0.00;0.00;;;14.40;99.90;13.60;97312.00;;;;5054949;28;20214;-74
2022/08/23 02:52:04;;;;;;;0.03;0.03;;;14.40;99.90;13.60;97315.00;;;;5072981;28;20239;-74
2022/08/23 02:54:33;;;;;;;0.10;0.10;;;14.40;99.90;13.50;97299.00;;;;5054896;28;20213;-74
2022/08/23 02:57:03;;;;;;;0.00;0.00;;;14.20;99.90;13.30;97295.00;;;;5072640;28;20190;-74
2022/08/23 02:59:32;;;;;;;0.00;0.00;;;14.10;99.90;13.30;97305.00;;;;5071903;28;20213;-73
2022/08/23 03:02:00;;;;;;;0.00;0.00;;;14.10;99.90;13.20;97232.00;;;;5055225;28;20198;-73
2022/08/23 03:04:34;;;;;;;0.10;0.10;;;14.10;99.90;13.20;97296.00;;;;5071267;28;20220;-74
2022/08/23 03:07:03;;;;;;;0.00;0.00;;;14.10;99.90;13.10;97297.00;;;;5054887;28;20288;-74
2022/08/23 03:09:31;;;;;;;0.10;0.10;;;14.00;99.90;13.20;97307.00;;;;5054472;28;20232;-74
2022/08/23 03:11:59;;;;;;;0.10;0.10;;;14.00;99.90;13.30;97307.00;;;;5054833;28;20198;-74
2022/08/23 03:14:30;;;;;;;0.00;0.00;;;14.10;99.90;13.20;97302.00;;;;5072040;28;20201;-74
2022/08/23 03:16:59;;;;;;;0.00;0.00;;;14.00;99.90;13.10;97310.00;;;;5057111;28;20223;-74
2022/08/23 03:19:27;;;;;;;0.05;0.05;;;14.00;99.90;13.00;97290.00;;;;5071760;28;20228;-74
2022/08/23 03:21:55;;;;;;;0.00;0.00;;;13.90;99.90;12.90;97300.00;;;;5056733;28;20205;-74
2022/08/23 03:24:25;;;;;;;0.03;0.03;;;13.80;99.90;12.90;97313.00;;;;5055428;28;20260;-74
2022/08/23 03:26:53;;;;;;;0.00;0.00;;;13.80;99.90;12.90;97311.00;;;;5056228;28;20200;-74
2022/08/23 03:29:21;;;;;;;0.10;0.10;;;13.90;99.90;12.80;97308.00;;;;5072755;28;20218;-74
2022/08/23 03:32:00;;;;;;;0.03;0.03;;;13.80;99.90;12.80;97302.00;;;;5074052;28;20297;-75
2022/08/23 03:34:32;;;;;;;0.08;0.08;;;13.80;99.90;13.00;97298.00;;;;5056439;28;20197;-74
2022/08/23 03:37:00;;;;;;;0.10;0.10;;;13.90;99.90;13.20;97303.00;;;;5072242;28;20200;-74
2022/08/23 03:39:28;;;;;;;0.03;0.03;;;14.00;99.90;13.30;97281.00;;;;5053922;28;20217;-73
2022/08/23 03:41:59;;;;;;;0.00;0.00;;;14.10;99.90;13.10;97308.00;;;;5071332;28;20197;-74
2022/08/23 03:44:31;;;;;;;0.10;0.10;;;13.90;99.90;13.00;97306.00;;;;5070525;28;20229;-74
2022/08/23 03:47:01;;;;;;;0.10;0.10;;;13.80;99.90;12.90;97312.00;;;;5070996;28;20200;-73
2022/08/23 03:49:29;;;;;;;0.00;0.00;;;13.80;99.90;13.10;97303.00;;;;5053678;28;20324;-73
2022/08/23 03:51:59;;;;;;;0.00;0.00;;;14.00;99.90;13.30;97313.00;;;;5054324;28;20546;-74
2022/08/23 03:54:31;;;;;;;0.10;0.10;;;14.10;99.90;13.40;97332.00;;;;5070544;28;20202;-74
2022/08/23 03:57:03;;;;;;;0.00;0.00;;;14.20;99.90;13.30;97321.00;;;;5053874;28;20208;-74
2022/08/23 03:59:37;;;;;;;0.05;0.05;;;14.10;99.90;13.10;97307.00;;;;5070183;28;20218;-74
2022/08/23 04:02:10;;;;;;;0.10;0.10;;;13.90;99.90;12.90;97257.00;;;;5053808;28;20193;-74
2022/08/23 04:04:39;;;;;;;0.00;0.00;;;13.80;99.90;12.90;97315.00;;;;5054056;28;20245;-74
2022/08/23 04:07:26;;;;;;;0.00;0.00;;;13.80;99.90;13.00;97326.00;;;;5071643;28;20200;-74
2022/08/23 04:09:57;;;;;;;0.00;0.00;;;13.80;99.90;13.20;97335.00;;;;5053637;28;20229;-74
2022/08/23 04:12:30;;;;;;;0.00;0.00;;;13.90;99.90;13.20;97323.00;;;;5070156;28;20623;-74
2022/08/23 04:14:59;;;;;;;0.00;0.00;;;13.90;99.90;13.20;97344.00;;;;5054286;28;20209;-74
2022/08/23 04:17:32;;;;;;;0.00;0.00;;;14.00;99.90;13.00;97329.00;;;;5053760;28;20206;-75
2022/08/23 04:20:00;;;;;;;0.10;0.10;;;13.90;99.90;13.00;97337.00;;;;5053801;28;20229;-74
2022/08/23 04:22:29;;;;;;;0.10;0.10;;;14.00;99.90;12.90;97338.00;;;;5069864;28;20199;-75
2022/08/23 04:24:57;;;;;;;0.10;0.10;;;13.80;99.90;12.90;97349.00;;;;5053472;28;20653;-74
2022/08/23 04:27:25;;;;;;;0.08;0.08;;;13.90;99.90;12.70;97350.00;;;;5069771;28;20189;-74
2022/08/23 04:29:53;;;;;;;0.10;0.10;;;13.70;99.90;12.60;97349.00;;;;5070140;28;20695;-74
2022/08/23 04:32:22;;;;;;;0.05;0.05;;;13.60;99.90;12.60;97343.00;;;;5053522;28;20716;-73
2022/08/23 04:34:58;;;;;;;0.00;0.00;;;13.60;99.90;12.70;97349.00;;;;5070040;28;20228;-74
2022/08/23 04:37:27;;;;;;;0.00;0.00;;;13.70;99.90;12.60;97339.00;;;;5053062;28;20266;-74
2022/08/23 04:42:42;;;;;;;0.03;0.03;;;13.30;99.90;12.20;97337.00;;;;5070494;28;20232;-74
2022/08/23 04:45:11;;;;;;;0.00;0.00;;;13.10;99.90;12.10;97348.00;;;;5052980;28;20726;-75
2022/08/23 04:47:44;;;;;;;0.10;0.10;;;13.00;99.90;12.00;97339.00;;;;5069363;28;20204;-73
2022/08/23 04:50:13;;;;;;;0.10;0.10;;;12.90;99.90;12.00;97338.00;;;;5052446;28;20213;-74
2022/08/23 04:53:04;;;;;;;0.00;0.00;;;13.00;99.90;12.10;97334.00;;;;5064824;28;20206;-74
2022/08/23 04:55:38;;;;;;;0.10;0.10;;;13.00;99.90;12.10;97344.00;;;;5052936;28;20233;-73
2022/08/23 04:58:07;;;;;;;0.10;0.10;;;13.10;99.90;12.10;97332.00;;;;5070954;28;20186;-74
2022/08/23 05:00:44;;;;;;;0.10;0.10;;;13.00;99.90;12.20;97335.00;;;;5052203;28;20197;-74
2022/08/23 05:03:20;;;;;;;0.00;0.00;;;13.00;99.90;12.20;97367.00;;;;5069772;28;20588;-74
2022/08/23 05:05:49;;;;;;;0.00;0.00;;;13.10;99.90;12.10;97341.00;;;;5053113;28;20239;-74
2022/08/23 05:08:20;;;;;;;0.10;0.10;;;13.00;99.90;12.10;97342.00;;;;5069385;28;20652;-74
2022/08/23 05:10:48;;;;;;;0.00;0.00;;;13.00;99.90;12.10;97346.00;;;;5070065;28;20194;-74
2022/08/23 05:13:16;;;;;;;0.00;0.00;;;13.00;99.90;12.20;97341.00;;;;5061976;28;20217;-74
2022/08/23 05:15:46;;;;;;;0.10;0.10;;;13.00;99.90;12.20;97349.00;;;;5060655;28;20576;-74
2022/08/23 05:18:14;;;;;;;0.00;0.00;;;13.10;99.90;12.30;97359.00;;;;5069403;28;20594;-74
2022/08/23 05:20:42;;;;;;;0.10;0.10;;;13.20;99.90;12.30;97359.00;;;;5054064;28;20194;-73
2022/08/23 05:23:11;;;;;;;0.00;0.00;;;13.20;99.90;12.40;97318.00;;;;5070796;28;20194;-74
2022/08/23 05:25:49;;;;;;;0.00;0.00;;;13.30;99.90;12.40;97353.00;;;;5061384;28;20221;-74
2022/08/23 05:28:30;;;;;;;0.10;0.10;;;13.20;99.90;12.30;97366.00;;;;5063317;28;20562;-73
2022/08/23 05:31:02;;;;;;;0.10;0.10;;;13.20;99.90;12.30;97358.00;;;;5059751;28;20211;-72
2022/08/23 05:33:37;;;;;;;0.10;0.10;;;13.10;99.90;12.20;97352.00;;;;5075241;28;20205;-72
2022/08/23 05:36:07;;;;;;;0.00;0.00;;;13.00;99.90;12.20;97358.00;;;;5075070;28;20200;-72
2022/08/23 05:38:38;;;;;;;0.10;0.10;;;13.00;99.90;12.20;97393.00;;;;5075061;28;20228;-73
2022/08/23 05:41:09;;;;;;;0.00;0.00;;;13.00;99.90;12.20;97365.00;;;;5059602;28;20190;-73
2022/08/23 05:43:37;;;;;;;0.00;0.00;;;13.00;99.90;12.30;97370.00;;;;5076072;28;20578;-73
2022/08/23 05:46:09;;;;;;;0.10;0.10;;;13.00;99.90;12.30;97368.00;;;;5057720;28;20221;-73
2022/08/23 05:48:47;;;;;;;0.00;0.00;;;13.10;99.90;12.30;97377.00;;;;5074120;28;20244;-72
2022/08/23 05:51:23;;;;;;;0.00;0.00;;;13.10;99.90;12.30;97389.00;;;;5074561;28;20664;-72
2022/08/23 05:53:57;;;;;;;0.00;0.00;;;13.10;99.90;12.40;97378.00;;;;5060227;28;20197;-73
2022/08/23 05:56:30;;;;;;;0.10;0.10;;;13.10;99.90;12.50;97390.00;;;;5084758;28;20194;-73
2022/08/23 05:59:02;;;;;;;0.10;0.10;;;13.30;99.90;12.60;97354.00;;;;5080518;28;20708;-72
2022/08/23 06:01:32;;;;;;;0.08;0.08;;;13.40;99.90;12.70;97392.00;;;;5085088;28;20217;-72
2022/08/23 06:04:12;;;;;;;0.10;0.10;;;13.50;99.90;12.70;97387.00;;;;5080203;28;20288;-72
2022/08/23 06:06:43;;;;;;;0.10;0.10;;;13.50;99.90;12.80;97386.00;;;;5078722;28;20227;-72
2022/08/23 06:09:15;;;;;;;0.10;0.10;;;13.60;99.90;12.90;97380.00;;;;5079837;28;20225;-73
2022/08/23 06:11:45;;;;;;;0.00;0.00;;;13.60;99.90;12.90;97382.00;;;;5062530;28;20228;-73
2022/08/23 06:14:14;;;;;;;0.10;0.10;;;13.70;99.90;13.00;97381.00;;;;5078757;28;20197;-73
2022/08/23 06:16:48;;;;;;;0.10;0.10;;;13.80;99.90;13.00;97391.00;;;;5076205;28;20225;-73
2022/08/23 06:19:24;;;;;;;0.00;0.00;;;13.80;99.90;13.10;97400.00;;;;5072206;28;20214;-73
2022/08/23 06:22:14;;;;;;;0.10;0.10;;;13.80;99.90;13.20;97369.00;;;;5040770;28;20202;-73
2022/08/23 06:24:44;;;;;;;0.08;0.08;;;14.00;99.90;13.30;97393.00;;;;5035384;28;20210;-73
2022/08/23 06:27:15;;;;;;;0.10;0.10;;;14.00;99.90;13.30;97391.00;;;;5053367;28;20290;-74
2022/08/23 06:29:44;;;;;;;0.10;0.10;;;14.00;99.90;13.30;97399.00;;;;5054240;28;20233;-73
2022/08/23 06:32:30;;;;;;;0.08;0.08;;;14.10;99.90;13.40;97359.00;;;;5053287;28;20313;-73
2022/08/23 06:35:25;;;;;;;0.10;0.10;;;14.20;99.90;13.60;97386.00;;;;5051767;28;20206;-73
2022/08/23 06:38:20;;;;;;;0.00;0.00;;;14.30;99.90;13.50;97404.00;;;;5051709;28;20678;-73
2022/08/23 06:40:49;;;;;;;0.10;0.10;;;14.30;99.90;13.60;97393.00;;;;5053306;28;20560;-73
2022/08/23 06:43:26;;;;;;;0.08;0.08;;;14.30;99.90;13.60;97345.00;;;;5053009;28;20289;-73
2022/08/23 06:46:25;;;;;;;0.00;0.00;;;14.40;99.90;13.80;97402.00;;;;5057283;28;20783;-73
2022/08/23 06:48:58;;;;;;;0.10;0.10;;;14.50;99.90;13.80;97411.00;;;;5071722;28;20708;-73
2022/08/23 06:51:29;;;;;;;0.08;0.08;;;14.50;99.90;13.90;97410.00;;;;5049924;28;20194;-73
2022/08/23 06:54:27;;;;;;;0.05;0.05;;;14.60;99.90;13.90;97399.00;;;;5052433;28;20264;-73
2022/08/23 06:57:15;;;;;;;0.10;0.10;;;14.60;99.90;14.00;97400.00;;;;5053518;28;20635;-73
2022/08/23 07:00:06;;;;;;;0.10;0.10;;;14.70;99.90;14.20;97405.00;;;;5053027;28;20234;-73
2022/08/23 07:02:53;;;;;;;0.00;0.00;;;14.90;99.90;14.20;97418.00;;;;5053467;28;20201;-73
2022/08/23 07:05:44;;;;;;;0.10;0.10;;;14.90;99.90;14.40;97380.00;;;;5058008;28;20237;-73
2022/08/23 07:08:18;;;;;;;0.00;0.00;;;15.10;99.90;14.60;97423.00;;;;5071915;28;20186;-73
2022/08/23 07:10:46;;;;;;;0.00;0.00;;;15.30;99.90;14.80;97422.00;;;;5052968;28;20289;-72
2022/08/23 07:13:15;;;;;;;0.00;0.00;;;15.40;99.90;14.90;97434.00;;;;5072366;28;20197;-73
2022/08/23 07:15:45;;;;;;;0.10;0.10;;;15.50;99.90;15.00;97425.00;;;;5071104;28;20205;-73
2022/08/23 07:18:18;;;;;;;0.00;0.00;;;15.60;99.90;15.10;97438.00;;;;5054184;28;20194;-73
2022/08/23 07:20:46;;;;;;;0.00;0.00;;;15.70;99.90;15.20;97427.00;;;;5071108;28;20194;-73
2022/08/23 07:23:16;;;;;;;0.00;0.00;;;15.90;99.90;15.30;97399.00;;;;5054254;28;20193;-73
2022/08/23 07:25:45;;;;;;;0.00;0.00;;;16.00;99.90;15.40;97433.00;;;;5071243;28;20256;-74
2022/08/23 07:28:18;;;;;;;0.00;0.00;;;16.10;99.90;15.50;97415.00;;;;5070604;28;20618;-74
2022/08/23 07:30:46;;;;;;;0.00;0.00;;;16.10;99.90;15.60;97423.00;;;;5054336;28;20194;-74
2022/08/23 07:33:15;;;;;;;0.00;0.00;;;16.30;99.90;15.70;97397.00;;;;5071341;28;20204;-73
2022/08/23 07:36:05;;;;;;;0.00;0.00;;;16.40;99.90;15.80;97425.00;;;;5071154;28;20938;-72
2022/08/23 07:38:34;;;;;;;0.08;0.08;;;16.50;99.90;15.90;97405.00;;;;5070739;28;20336;-73
2022/08/23 07:41:03;;;;;;;0.00;0.00;;;16.60;99.90;16.10;97434.00;;;;5071316;28;20561;-73
2022/08/23 07:43:34;;;;;;;0.00;0.00;;;16.70;99.90;16.30;97433.00;;;;5070188;28;20226;-73
2022/08/23 07:46:03;;;;;;;0.00;0.00;;;16.90;99.90;16.50;97433.00;;;;5070943;28;20221;-73
2022/08/23 07:48:32;;;;;;;0.00;0.00;;;17.10;99.90;16.60;97421.00;;;;5070183;28;20240;-73
2022/08/23 07:51:23;;;;;;;0.00;0.00;;;17.20;99.90;16.70;97405.00;;;;5071046;28;20193;-72
2022/08/23 07:53:52;;;;;;;0.00;0.00;;;17.30;99.90;16.90;97446.00;;;;5072302;28;20204;-73
2022/08/23 07:56:23;;;;;;;0.00;0.00;;;17.40;99.90;16.90;97410.00;;;;5073436;28;20205;-72
2022/08/23 07:59:22;;;;;;;0.00;0.00;;;17.60;99.90;16.80;97463.00;;;;5052033;28;20226;-72
2022/08/23 08:02:11;;;;;;;0.00;0.00;;;17.60;99.90;17.00;97425.00;;;;5070772;28;20202;-72
2022/08/23 08:04:41;;;;;;;0.03;0.03;;;17.60;99.90;17.10;97455.00;;;;5054488;28;20197;-73
2022/08/23 08:07:09;;;;;;;0.00;0.00;;;17.70;99.90;17.30;97459.00;;;;5053637;28;20219;-73
2022/08/23 08:09:56;;;;;;;0.00;0.00;;;17.90;99.90;17.40;97465.00;;;;5053615;28;20262;-72
2022/08/23 08:12:25;;;;;;;0.00;0.00;;;18.00;99.90;17.50;97369.00;;;;5086480;22;20197;-73
2022/08/23 08:14:57;;;;;;;0.00;0.00;;;18.10;99.90;17.60;97468.00;;;;5053473;28;20206;-73
2022/08/23 08:17:31;;;;;;;0.10;0.10;;;18.20;99.90;17.60;97466.00;;;;5052611;28;20208;-73
2022/08/23 08:20:19;;;;;;;0.00;0.00;;;18.20;99.90;17.60;97465.00;;;;5053823;28;20731;-73
2022/08/23 08:23:22;;;;;;;0.00;0.00;;;18.20;99.90;17.80;97463.00;;;;5055662;28;20218;-74
2022/08/23 08:26:27;;;;;;;0.00;0.00;;;18.40;99.90;17.90;97461.00;;;;5040739;28;20222;-72
2022/08/23 08:28:57;;;;;;;0.00;0.00;;;18.50;99.90;17.90;97469.00;;;;5036383;28;20203;-74
2022/08/23 08:31:27;;;;;;;0.00;0.00;;;18.50;99.90;18.00;97475.00;;;;5034607;28;20194;-73
2022/08/23 08:33:56;;;;;;;0.00;0.00;;;18.60;99.90;18.10;97471.00;;;;5050602;28;20218;-73
2022/08/23 08:36:34;;;;;;;0.00;0.00;;;18.70;99.90;18.20;97466.00;;;;5022724;28;20298;-73
2022/08/23 08:39:07;;;;;;;0.00;0.00;;;18.80;99.90;18.40;97469.00;;;;5030527;28;20221;-73
2022/08/23 08:41:53;;;;;;;0.00;0.00;;;18.80;99.90;18.50;97474.00;;;;5013878;28;20233;-73
2022/08/23 08:44:44;;;;;;;0.00;0.00;;;19.00;99.90;18.60;97472.00;;;;5025461;28;20226;-74
2022/08/23 08:47:24;;;;;;;0.00;0.00;;;19.10;99.90;18.70;97487.00;;;;5033901;28;20228;-73
2022/08/23 08:50:07;;;;;;;0.00;0.00;;;19.20;99.90;18.80;97460.00;;;;5034295;28;20204;-73
2022/08/23 08:52:43;;;;;;;0.00;0.00;;;19.30;99.90;18.90;97474.00;;;;5050783;28;20245;-72
2022/08/23 08:55:25;;;;;;;0.00;0.00;;;19.40;99.90;19.00;97482.00;;;;5034084;28;20281;-73
2022/08/23 08:57:55;;;;;;;0.00;0.00;;;19.50;99.90;19.10;97479.00;;;;5054277;28;20259;-73
2022/08/23 09:00:27;;;;;;;0.10;0.10;;;19.60;99.90;19.30;97485.00;;;;5033685;28;20276;-73
2022/08/23 09:03:01;;;;;;;0.00;0.00;;;19.70;99.90;19.40;97493.00;;;;5036386;28;20226;-73
2022/08/23 09:05:36;;;;;;;0.00;0.00;;;19.80;99.90;19.50;97482.00;;;;5055117;28;20284;-73
2022/08/23 09:08:25;;;;;;;0.00;0.00;;;19.90;99.90;19.50;97493.00;;;;5054947;28;20604;-73
2022/08/23 09:11:07;;;;;;;0.00;0.00;;;20.00;99.90;19.40;97487.00;;;;5027984;28;20276;-73
2022/08/23 09:14:13;;;;;;;0.00;0.00;;;19.90;99.90;19.70;97483.00;;;;5047748;28;20956;-73
2022/08/23 09:16:52;;;;;;;0.00;0.00;;;20.10;99.90;19.80;97485.00;;;;5052818;28;20804;-73
2022/08/23 09:19:24;;;;;;;0.00;0.00;;;20.30;99.90;20.00;97485.00;;;;5037349;28;20205;-72
2022/08/23 09:21:58;;;;;;;0.00;0.00;;;20.40;99.90;20.10;97480.00;;;;5055369;28;20191;-73
2022/08/23 09:24:28;;;;;;;0.00;0.00;;;20.50;99.90;20.00;97496.00;;;;5037539;28;20211;-73
2022/08/23 09:27:19;;;;;;;0.00;0.00;;;20.50;99.90;20.10;97492.00;;;;5046601;28;20222;-73
2022/08/23 09:30:01;;;;;;;0.00;0.00;;;20.50;99.90;20.10;97481.00;;;;5038636;28;20535;-73
2022/08/23 09:32:33;;;;;;;0.00;0.00;;;20.60;99.90;20.10;97495.00;;;;5060308;28;20664;-73
2022/08/23 09:35:16;;;;;;;0.00;0.00;;;20.60;99.90;20.20;97491.00;;;;5042622;28;20194;-73
2022/08/23 09:37:59;;;;;;;0.00;0.00;;;20.60;99.90;20.30;97460.00;;;;5042111;28;20202;-73
2022/08/23 09:40:36;;;;;;;0.00;0.00;;;20.70;99.90;20.30;97499.00;;;;5037676;28;20618;-73
2022/08/23 09:43:15;;;;;;;0.00;0.00;;;20.70;99.90;20.30;97484.00;;;;5037799;28;20229;-72
2022/08/23 09:45:58;;;;;;;0.00;0.00;;;20.80;99.90;20.40;97493.00;;;;5037741;28;20206;-73
2022/08/23 09:48:40;;;;;;;0.00;0.00;;;20.90;99.90;20.50;97474.00;;;;5053522;28;20230;-72
2022/08/23 09:51:24;;;;;;;0.00;0.00;;;20.90;99.90;20.60;97485.00;;;;5054212;28;20249;-73
2022/08/23 09:54:07;;;;;;;0.00;0.00;;;20.90;99.90;20.60;97480.00;;;;5053937;28;20225;-72
2022/08/23 09:56:40;;;;;;;0.00;0.00;;;21.00;99.90;20.70;97495.00;;;;5037026;28;20252;-74
2022/08/23 09:59:34;;;;;;;0.00;0.00;;;21.10;99.90;20.70;97485.00;;;;5053662;28;20205;-73
2022/08/23 10:02:24;;;;;;;0.00;0.00;;;21.10;99.90;20.80;97488.00;;;;5053296;28;20198;-74
2022/08/23 10:05:01;;;;;;;0.00;0.00;;;21.20;99.90;20.90;97482.00;;;;5053208;28;20195;-72
2022/08/23 10:07:40;;;;;;;0.00;0.00;;;21.30;99.90;21.10;97497.00;;;;5035740;28;20218;-72
2022/08/23 10:10:23;;;;;;;0.00;0.00;;;21.40;99.90;21.20;97489.00;;;;5054117;28;20225;-73
2022/08/23 10:12:54;;;;;;;0.00;0.00;;;21.50;99.90;21.30;97495.00;;;;5053432;28;20250;-73
2022/08/23 10:15:39;;;;;;;0.00;0.00;;;21.60;99.90;21.40;97490.00;;;;5037242;28;20256;-73
2022/08/23 10:18:17;;;;;;;0.00;0.00;;;21.70;99.90;21.30;97486.00;;;;5034802;28;20198;-73
2022/08/23 10:21:01;;;;;;;0.00;0.00;;;21.70;99.90;21.30;97486.00;;;;5035909;28;20198;-74
2022/08/23 10:23:50;;;;;;;0.00;0.00;;;21.70;99.90;21.40;97491.00;;;;5053046;28;20222;-72
2022/08/23 10:26:27;;;;;;;0.00;0.00;;;21.70;99.90;21.20;97491.00;;;;5054362;28;20218;-75
2022/08/23 10:32:05;;;;;;;0.00;0.00;;;21.70;99.90;21.40;97490.00;;;;5054426;28;20379;-73
2022/08/23 10:35:06;;;;;;;0.00;0.00;;;21.80;99.90;21.50;97498.00;;;;5053304;28;20206;-72
2022/08/23 10:37:55;;;;;;;0.00;0.00;;;21.90;99.90;21.60;97491.00;;;;5054349;28;20237;-72
2022/08/23 10:40:33;;;;;;;0.00;0.00;;;22.00;99.90;21.50;97484.00;;;;5054101;28;20210;-75
2022/08/23 10:43:15;;;;;;;0.00;0.00;;;22.00;99.90;21.60;97483.00;;;;5054664;28;20704;-75
2022/08/23 10:45:48;;;;;;;0.00;0.00;;;22.00;99.90;21.70;97484.00;;;;5053756;28;20206;-72
2022/08/23 10:48:37;;;;;;;0.00;0.00;;;22.10;99.90;21.90;97471.00;;;;5053315;28;20229;-73
2022/08/23 10:51:12;;;;;;;0.00;0.00;;;22.20;99.90;22.20;97482.00;;;;5054777;28;20182;-75
2022/08/23 10:53:46;;;;;;;0.00;0.00;;;22.40;99.90;22.50;97480.00;;;;5052759;28;20245;-73
2022/08/23 10:56:19;;;;;;;0.00;0.00;;;22.70;99.90;22.70;97474.00;;;;5055056;28;20708;-73
2022/08/23 10:58:58;;;;;;;0.00;0.00;;;22.90;99.90;22.90;97474.00;;;;5054304;28;20222;-73
2022/08/23 11:01:39;;;;;;;0.00;0.00;;;23.10;99.90;22.70;97462.00;;;;5061809;28;20214;-73
2022/08/23 11:04:27;;;;;;;0.00;0.00;;;23.10;99.90;22.50;97473.00;;;;5066229;28;20277;-74
2022/08/23 11:07:18;;;;;;;0.00;0.00;;;22.90;99.90;22.50;97448.00;;;;5058184;28;20260;-73
2022/08/23 11:10:06;;;;;;;0.00;0.00;;;22.80;99.90;22.70;97490.00;;;;5030949;28;20237;-73
2022/08/23 11:13:01;;;;;;;0.00;0.00;;;22.90;99.90;22.50;97459.00;;;;5036023;28;20349;-73
2022/08/23 11:15:43;;;;;;;0.00;0.00;;;22.90;99.90;22.70;97462.00;;;;5018602;28;20620;-73
2022/08/23 11:18:47;;;;;;;0.00;0.00;;;23.00;99.90;22.70;97466.00;;;;5034704;28;20194;-73
2022/08/23 11:21:47;;;;;;;0.00;0.00;;;23.00;99.90;22.60;97470.00;;;;5032678;28;20203;-73
2022/08/23 11:24:52;;;;;;;0.00;0.00;;;23.00;99.90;22.80;97465.00;;;;5015865;28;20226;-73
2022/08/23 11:27:36;;;;;;;0.00;0.00;;;23.10;99.90;22.70;97455.00;;;;5015199;28;20254;-74
2022/08/23 11:30:49;;;;;;;0.00;0.00;;;23.00;99.90;22.70;97467.00;;;;5015655;28;20222;-74
2022/08/23 11:33:34;;;;;;;0.00;0.00;;;23.00;99.90;22.90;97463.00;;;;5015401;28;20306;-74
2022/08/23 11:36:20;;;;;;;0.00;0.00;;;23.10;99.90;23.30;97464.00;;;;5031672;28;20199;-73
2022/08/23 11:39:08;;;;;;;0.00;0.00;;;23.40;99.90;23.30;97459.00;;;;5031603;28;20187;-73
2022/08/23 11:42:03;;;;;;;0.00;0.00;;;23.50;99.90;23.70;97468.00;;;;5015231;28;20203;-74
2022/08/23 11:44:40;;;;;;;0.00;0.00;;;23.90;99.90;24.30;97457.00;;;;5047503;28;20256;-73
2022/08/23 11:47:14;;;;;;;0.00;0.00;;;24.30;99.90;24.40;97462.00;;;;5035291;28;20209;-73